sensor_id;sensor_type;location;lat;lon;timestamp;P1;durP1;ratioP1;P2;durP2;ratioP2
42854;SDS011;29183;48.038;14.346;2022-07-09T00:00:24;4.25;;;2.20;;
42854;SDS011;29183;48.038;14.346;2022-07-09T00:02:53;2.10;;;1.90;;
42854;SDS011;29183;48.038;14.346;2022-07-09T00:05:21;2.53;;;1.90;;
42854;SDS011;29183;48.038;14.346;2022-07-09T00:07:49;3.75;;;1.90;;
42854;SDS011;29183;48.038;14.346;2022-07-09T00:10:17;2.47;;;1.88;;
42854;SDS011;29183;48.038;14.346;2022-07-09T00:12:45;4.10;;;2.10;;
42854;SDS011;29183;48.038;14.346;2022-07-09T00:15:14;1.98;;;1.88;;
42854;SDS011;29183;48.038;14.346;2022-07-09T00:17:42;2.05;;;1.67;;
42854;SDS011;29183;48.038;14.346;2022-07-09T00:20:10;2.17;;;1.90;;
42854;SDS011;29183;48.038;14.346;2022-07-09T00:22:39;2.72;;;1.73;;
42854;SDS011;29183;48.038;14.346;2022-07-09T00:25:07;2.20;;;2.00;;
42854;SDS011;29183;48.038;14.346;2022-07-09T00:27:35;4.43;;;1.92;;
42854;SDS011;29183;48.038;14.346;2022-07-09T00:30:04;1.55;;;1.40;;
42854;SDS011;29183;48.038;14.346;2022-07-09T00:32:32;2.85;;;1.88;;
42854;SDS011;29183;48.038;14.346;2022-07-09T00:35:01;2.10;;;1.90;;
42854;SDS011;29183;48.038;14.346;2022-07-09T00:37:29;1.98;;;1.80;;
42854;SDS011;29183;48.038;14.346;2022-07-09T00:39:57;2.25;;;1.90;;
42854;SDS011;29183;48.038;14.346;2022-07-09T00:42:26;4.30;;;2.30;;
42854;SDS011;29183;48.038;14.346;2022-07-09T00:44:54;1.80;;;1.65;;
42854;SDS011;29183;48.038;14.346;2022-07-09T00:47:23;4.00;;;1.95;;
42854;SDS011;29183;48.038;14.346;2022-07-09T00:49:51;4.28;;;1.70;;
42854;SDS011;29183;48.038;14.346;2022-07-09T00:52:20;2.22;;;1.70;;
42854;SDS011;29183;48.038;14.346;2022-07-09T00:54:48;3.60;;;1.90;;
42854;SDS011;29183;48.038;14.346;2022-07-09T00:57:18;3.80;;;1.83;;
42854;SDS011;29183;48.038;14.346;2022-07-09T00:59:47;6.38;;;1.80;;
42854;SDS011;29183;48.038;14.346;2022-07-09T01:02:16;2.72;;;1.55;;
42854;SDS011;29183;48.038;14.346;2022-07-09T01:04:46;2.95;;;1.67;;
42854;SDS011;29183;48.038;14.346;2022-07-09T01:07:14;5.25;;;2.10;;
42854;SDS011;29183;48.038;14.346;2022-07-09T01:09:42;2.60;;;1.50;;
42854;SDS011;29183;48.038;14.346;2022-07-09T01:12:11;1.95;;;1.50;;
42854;SDS011;29183;48.038;14.346;2022-07-09T01:14:41;3.03;;;1.77;;
42854;SDS011;29183;48.038;14.346;2022-07-09T01:17:09;3.95;;;1.83;;
42854;SDS011;29183;48.038;14.346;2022-07-09T01:19:37;4.30;;;2.20;;
42854;SDS011;29183;48.038;14.346;2022-07-09T01:22:05;2.17;;;1.70;;
42854;SDS011;29183;48.038;14.346;2022-07-09T01:24:34;2.25;;;1.70;;
42854;SDS011;29183;48.038;14.346;2022-07-09T01:27:02;1.67;;;1.55;;
42854;SDS011;29183;48.038;14.346;2022-07-09T01:29:31;3.80;;;1.50;;
42854;SDS011;29183;48.038;14.346;2022-07-09T01:31:59;2.50;;;1.85;;
42854;SDS011;29183;48.038;14.346;2022-07-09T01:34:27;2.50;;;1.88;;
42854;SDS011;29183;48.038;14.346;2022-07-09T01:36:55;4.38;;;1.60;;
42854;SDS011;29183;48.038;14.346;2022-07-09T01:39:23;1.98;;;1.58;;
42854;SDS011;29183;48.038;14.346;2022-07-09T01:41:52;4.13;;;2.15;;
42854;SDS011;29183;48.038;14.346;2022-07-09T01:44:20;3.70;;;1.77;;
42854;SDS011;29183;48.038;14.346;2022-07-09T01:46:48;3.30;;;1.70;;
42854;SDS011;29183;48.038;14.346;2022-07-09T01:49:16;3.70;;;2.20;;
42854;SDS011;29183;48.038;14.346;2022-07-09T01:51:45;7.68;;;1.60;;
42854;SDS011;29183;48.038;14.346;2022-07-09T01:54:13;3.10;;;2.05;;
42854;SDS011;29183;48.038;14.346;2022-07-09T01:56:41;3.10;;;1.73;;
42854;SDS011;29183;48.038;14.346;2022-07-09T01:59:09;4.22;;;1.85;;
42854;SDS011;29183;48.038;14.346;2022-07-09T02:01:37;1.95;;;1.30;;
42854;SDS011;29183;48.038;14.346;2022-07-09T02:04:05;2.35;;;1.60;;
42854;SDS011;29183;48.038;14.346;2022-07-09T02:06:33;2.92;;;1.90;;
42854;SDS011;29183;48.038;14.346;2022-07-09T02:09:02;2.85;;;1.95;;
42854;SDS011;29183;48.038;14.346;2022-07-09T02:11:30;7.15;;;2.00;;
42854;SDS011;29183;48.038;14.346;2022-07-09T02:13:58;4.18;;;1.55;;
42854;SDS011;29183;48.038;14.346;2022-07-09T02:16:27;2.00;;;1.50;;
42854;SDS011;29183;48.038;14.346;2022-07-09T02:18:55;1.80;;;1.67;;
42854;SDS011;29183;48.038;14.346;2022-07-09T02:21:23;1.83;;;1.63;;
42854;SDS011;29183;48.038;14.346;2022-07-09T02:23:51;3.95;;;1.60;;
42854;SDS011;29183;48.038;14.346;2022-07-09T02:26:25;2.10;;;1.45;;
42854;SDS011;29183;48.038;14.346;2022-07-09T02:28:57;1.63;;;1.40;;
42854;SDS011;29183;48.038;14.346;2022-07-09T02:31:26;3.38;;;1.60;;
42854;SDS011;29183;48.038;14.346;2022-07-09T02:33:54;2.78;;;2.20;;
42854;SDS011;29183;48.038;14.346;2022-07-09T02:36:22;8.77;;;2.33;;
42854;SDS011;29183;48.038;14.346;2022-07-09T02:38:51;2.30;;;1.63;;
42854;SDS011;29183;48.038;14.346;2022-07-09T02:41:19;7.03;;;2.30;;
42854;SDS011;29183;48.038;14.346;2022-07-09T02:43:47;2.05;;;1.85;;
42854;SDS011;29183;48.038;14.346;2022-07-09T02:46:15;3.22;;;2.10;;
42854;SDS011;29183;48.038;14.346;2022-07-09T02:48:44;5.93;;;1.92;;
42854;SDS011;29183;48.038;14.346;2022-07-09T02:51:12;2.35;;;1.85;;
42854;SDS011;29183;48.038;14.346;2022-07-09T02:53:40;5.35;;;2.47;;
42854;SDS011;29183;48.038;14.346;2022-07-09T02:56:08;4.47;;;1.88;;
42854;SDS011;29183;48.038;14.346;2022-07-09T02:58:37;5.38;;;2.05;;
42854;SDS011;29183;48.038;14.346;2022-07-09T03:01:05;5.43;;;2.00;;
42854;SDS011;29183;48.038;14.346;2022-07-09T03:03:33;2.35;;;1.95;;
42854;SDS011;29183;48.038;14.346;2022-07-09T03:06:03;5.40;;;3.05;;
42854;SDS011;29183;48.038;14.346;2022-07-09T03:08:31;3.65;;;2.17;;
42854;SDS011;29183;48.038;14.346;2022-07-09T03:11:00;3.50;;;2.15;;
42854;SDS011;29183;48.038;14.346;2022-07-09T03:13:29;3.35;;;2.38;;
42854;SDS011;29183;48.038;14.346;2022-07-09T03:15:57;2.47;;;1.73;;
42854;SDS011;29183;48.038;14.346;2022-07-09T03:18:25;2.85;;;2.00;;
42854;SDS011;29183;48.038;14.346;2022-07-09T03:20:53;2.35;;;1.73;;
42854;SDS011;29183;48.038;14.346;2022-07-09T03:23:21;2.53;;;2.30;;
42854;SDS011;29183;48.038;14.346;2022-07-09T03:25:50;2.25;;;1.90;;
42854;SDS011;29183;48.038;14.346;2022-07-09T03:28:18;2.58;;;1.98;;
42854;SDS011;29183;48.038;14.346;2022-07-09T03:30:46;4.90;;;1.83;;
42854;SDS011;29183;48.038;14.346;2022-07-09T03:33:15;4.68;;;2.30;;
42854;SDS011;29183;48.038;14.346;2022-07-09T03:35:43;3.42;;;2.30;;
42854;SDS011;29183;48.038;14.346;2022-07-09T03:38:11;2.60;;;2.15;;
42854;SDS011;29183;48.038;14.346;2022-07-09T03:40:39;3.28;;;2.10;;
42854;SDS011;29183;48.038;14.346;2022-07-09T03:43:07;3.67;;;2.42;;
42854;SDS011;29183;48.038;14.346;2022-07-09T03:45:36;3.42;;;2.00;;
42854;SDS011;29183;48.038;14.346;2022-07-09T03:48:04;3.17;;;2.15;;
42854;SDS011;29183;48.038;14.346;2022-07-09T03:50:32;2.88;;;1.90;;
42854;SDS011;29183;48.038;14.346;2022-07-09T03:53:00;2.72;;;1.98;;
42854;SDS011;29183;48.038;14.346;2022-07-09T03:55:28;2.28;;;2.03;;
42854;SDS011;29183;48.038;14.346;2022-07-09T03:57:57;3.42;;;2.53;;
42854;SDS011;29183;48.038;14.346;2022-07-09T04:00:25;2.33;;;2.13;;
42854;SDS011;29183;48.038;14.346;2022-07-09T04:02:55;4.33;;;1.87;;
42854;SDS011;29183;48.038;14.346;2022-07-09T04:05:24;3.72;;;1.83;;
42854;SDS011;29183;48.038;14.346;2022-07-09T04:07:52;3.13;;;2.08;;
42854;SDS011;29183;48.038;14.346;2022-07-09T04:10:20;2.10;;;1.60;;
42854;SDS011;29183;48.038;14.346;2022-07-09T04:12:48;3.35;;;1.90;;
42854;SDS011;29183;48.038;14.346;2022-07-09T04:15:17;2.03;;;1.92;;
42854;SDS011;29183;48.038;14.346;2022-07-09T04:17:45;3.67;;;1.83;;
42854;SDS011;29183;48.038;14.346;2022-07-09T04:20:13;2.38;;;1.90;;
42854;SDS011;29183;48.038;14.346;2022-07-09T04:22:41;2.33;;;1.85;;
42854;SDS011;29183;48.038;14.346;2022-07-09T04:25:09;5.85;;;1.95;;
42854;SDS011;29183;48.038;14.346;2022-07-09T04:27:37;2.50;;;2.00;;
42854;SDS011;29183;48.038;14.346;2022-07-09T04:30:06;4.20;;;2.00;;
42854;SDS011;29183;48.038;14.346;2022-07-09T04:32:36;2.50;;;1.92;;
42854;SDS011;29183;48.038;14.346;2022-07-09T04:35:05;6.47;;;2.80;;
42854;SDS011;29183;48.038;14.346;2022-07-09T04:37:33;2.97;;;2.20;;
42854;SDS011;29183;48.038;14.346;2022-07-09T04:40:02;3.17;;;2.20;;
42854;SDS011;29183;48.038;14.346;2022-07-09T04:42:31;5.10;;;2.00;;
42854;SDS011;29183;48.038;14.346;2022-07-09T04:44:59;4.22;;;2.30;;
42854;SDS011;29183;48.038;14.346;2022-07-09T04:47:28;6.75;;;2.88;;
42854;SDS011;29183;48.038;14.346;2022-07-09T04:49:56;4.60;;;2.13;;
42854;SDS011;29183;48.038;14.346;2022-07-09T04:52:24;3.28;;;2.35;;
42854;SDS011;29183;48.038;14.346;2022-07-09T04:54:54;2.80;;;1.98;;
42854;SDS011;29183;48.038;14.346;2022-07-09T04:57:22;1.90;;;1.80;;
42854;SDS011;29183;48.038;14.346;2022-07-09T04:59:50;2.08;;;1.90;;
42854;SDS011;29183;48.038;14.346;2022-07-09T05:02:19;3.63;;;1.90;;
42854;SDS011;29183;48.038;14.346;2022-07-09T05:04:47;4.47;;;2.00;;
42854;SDS011;29183;48.038;14.346;2022-07-09T05:07:16;4.40;;;1.90;;
42854;SDS011;29183;48.038;14.346;2022-07-09T05:09:44;3.13;;;1.98;;
42854;SDS011;29183;48.038;14.346;2022-07-09T05:12:13;4.32;;;2.15;;
42854;SDS011;29183;48.038;14.346;2022-07-09T05:14:41;4.53;;;2.55;;
42854;SDS011;29183;48.038;14.346;2022-07-09T05:17:10;4.50;;;2.00;;
42854;SDS011;29183;48.038;14.346;2022-07-09T05:19:38;2.72;;;2.15;;
42854;SDS011;29183;48.038;14.346;2022-07-09T05:22:07;2.38;;;2.17;;
42854;SDS011;29183;48.038;14.346;2022-07-09T05:24:35;2.75;;;2.22;;
42854;SDS011;29183;48.038;14.346;2022-07-09T05:27:04;2.83;;;2.00;;
42854;SDS011;29183;48.038;14.346;2022-07-09T05:29:32;2.90;;;2.60;;
42854;SDS011;29183;48.038;14.346;2022-07-09T05:32:00;3.63;;;2.22;;
42854;SDS011;29183;48.038;14.346;2022-07-09T05:34:28;4.28;;;2.15;;
42854;SDS011;29183;48.038;14.346;2022-07-09T05:36:56;5.43;;;2.13;;
42854;SDS011;29183;48.038;14.346;2022-07-09T05:39:25;2.85;;;2.25;;
42854;SDS011;29183;48.038;14.346;2022-07-09T05:41:53;4.35;;;2.47;;
42854;SDS011;29183;48.038;14.346;2022-07-09T05:44:21;3.17;;;2.33;;
42854;SDS011;29183;48.038;14.346;2022-07-09T05:46:50;4.05;;;2.22;;
42854;SDS011;29183;48.038;14.346;2022-07-09T05:49:19;6.07;;;2.10;;
42854;SDS011;29183;48.038;14.346;2022-07-09T05:51:47;4.88;;;2.47;;
42854;SDS011;29183;48.038;14.346;2022-07-09T05:54:15;3.05;;;2.33;;
42854;SDS011;29183;48.038;14.346;2022-07-09T05:56:44;2.08;;;1.98;;
42854;SDS011;29183;48.038;14.346;2022-07-09T05:59:12;3.47;;;2.58;;
42854;SDS011;29183;48.038;14.346;2022-07-09T06:01:40;3.42;;;2.25;;
42854;SDS011;29183;48.038;14.346;2022-07-09T06:04:10;2.90;;;2.33;;
42854;SDS011;29183;48.038;14.346;2022-07-09T06:06:38;3.83;;;2.38;;
42854;SDS011;29183;48.038;14.346;2022-07-09T06:09:07;3.97;;;2.30;;
42854;SDS011;29183;48.038;14.346;2022-07-09T06:11:35;3.60;;;2.65;;
42854;SDS011;29183;48.038;14.346;2022-07-09T06:14:03;3.95;;;2.35;;
42854;SDS011;29183;48.038;14.346;2022-07-09T06:16:31;4.88;;;2.38;;
42854;SDS011;29183;48.038;14.346;2022-07-09T06:18:59;3.13;;;2.05;;
42854;SDS011;29183;48.038;14.346;2022-07-09T06:21:28;2.33;;;2.13;;
42854;SDS011;29183;48.038;14.346;2022-07-09T06:23:56;5.53;;;2.05;;
42854;SDS011;29183;48.038;14.346;2022-07-09T06:26:24;2.45;;;1.83;;
42854;SDS011;29183;48.038;14.346;2022-07-09T06:28:52;3.45;;;2.65;;
42854;SDS011;29183;48.038;14.346;2022-07-09T06:31:20;2.78;;;1.92;;
42854;SDS011;29183;48.038;14.346;2022-07-09T06:33:49;3.65;;;2.10;;
42854;SDS011;29183;48.038;14.346;2022-07-09T06:36:22;2.85;;;2.40;;
42854;SDS011;29183;48.038;14.346;2022-07-09T06:38:50;2.40;;;2.17;;
42854;SDS011;29183;48.038;14.346;2022-07-09T06:41:36;7.97;;;2.55;;
42854;SDS011;29183;48.038;14.346;2022-07-09T06:44:05;4.90;;;2.20;;
42854;SDS011;29183;48.038;14.346;2022-07-09T06:46:33;3.15;;;2.33;;
42854;SDS011;29183;48.038;14.346;2022-07-09T06:49:02;5.93;;;2.60;;
42854;SDS011;29183;48.038;14.346;2022-07-09T06:51:31;2.95;;;1.92;;
42854;SDS011;29183;48.038;14.346;2022-07-09T06:53:59;2.67;;;2.20;;
42854;SDS011;29183;48.038;14.346;2022-07-09T06:56:27;2.80;;;1.80;;
42854;SDS011;29183;48.038;14.346;2022-07-09T06:58:55;3.58;;;2.20;;
42854;SDS011;29183;48.038;14.346;2022-07-09T07:01:23;3.13;;;2.10;;
42854;SDS011;29183;48.038;14.346;2022-07-09T07:03:52;5.95;;;1.92;;
42854;SDS011;29183;48.038;14.346;2022-07-09T07:06:20;3.85;;;2.90;;
42854;SDS011;29183;48.038;14.346;2022-07-09T07:08:48;4.18;;;2.20;;
42854;SDS011;29183;48.038;14.346;2022-07-09T07:11:16;3.35;;;2.53;;
42854;SDS011;29183;48.038;14.346;2022-07-09T07:13:44;4.07;;;2.00;;
42854;SDS011;29183;48.038;14.346;2022-07-09T07:16:13;4.43;;;2.30;;
42854;SDS011;29183;48.038;14.346;2022-07-09T07:18:41;5.25;;;2.42;;
42854;SDS011;29183;48.038;14.346;2022-07-09T07:21:09;2.67;;;2.03;;
42854;SDS011;29183;48.038;14.346;2022-07-09T07:23:37;2.40;;;2.05;;
42854;SDS011;29183;48.038;14.346;2022-07-09T07:26:05;3.22;;;2.00;;
42854;SDS011;29183;48.038;14.346;2022-07-09T07:28:33;5.57;;;2.50;;
42854;SDS011;29183;48.038;14.346;2022-07-09T07:31:02;3.95;;;2.38;;
42854;SDS011;29183;48.038;14.346;2022-07-09T07:33:31;3.65;;;2.30;;
42854;SDS011;29183;48.038;14.346;2022-07-09T07:35:59;4.88;;;2.42;;
42854;SDS011;29183;48.038;14.346;2022-07-09T07:38:27;14.35;;;2.97;;
42854;SDS011;29183;48.038;14.346;2022-07-09T07:40:55;7.45;;;2.30;;
42854;SDS011;29183;48.038;14.346;2022-07-09T07:43:23;4.80;;;2.03;;
42854;SDS011;29183;48.038;14.346;2022-07-09T07:45:52;4.07;;;2.35;;
42854;SDS011;29183;48.038;14.346;2022-07-09T07:48:20;7.20;;;2.30;;
42854;SDS011;29183;48.038;14.346;2022-07-09T07:50:49;4.43;;;1.73;;
42854;SDS011;29183;48.038;14.346;2022-07-09T07:53:17;4.30;;;2.10;;
42854;SDS011;29183;48.038;14.346;2022-07-09T07:55:45;4.82;;;2.20;;
42854;SDS011;29183;48.038;14.346;2022-07-09T07:58:14;3.33;;;2.00;;
42854;SDS011;29183;48.038;14.346;2022-07-09T08:00:42;2.75;;;1.88;;
42854;SDS011;29183;48.038;14.346;2022-07-09T08:03:10;2.30;;;1.83;;
42854;SDS011;29183;48.038;14.346;2022-07-09T08:05:38;1.65;;;1.55;;
42854;SDS011;29183;48.038;14.346;2022-07-09T08:08:07;3.50;;;1.80;;
42854;SDS011;29183;48.038;14.346;2022-07-09T08:10:35;3.33;;;2.00;;
42854;SDS011;29183;48.038;14.346;2022-07-09T08:13:03;1.85;;;1.60;;
42854;SDS011;29183;48.038;14.346;2022-07-09T08:15:31;2.35;;;2.00;;
42854;SDS011;29183;48.038;14.346;2022-07-09T08:17:59;2.42;;;1.98;;
42854;SDS011;29183;48.038;14.346;2022-07-09T08:20:28;3.58;;;2.25;;
42854;SDS011;29183;48.038;14.346;2022-07-09T08:22:56;3.08;;;1.95;;
42854;SDS011;29183;48.038;14.346;2022-07-09T08:25:25;3.85;;;2.00;;
42854;SDS011;29183;48.038;14.346;2022-07-09T08:27:53;4.53;;;2.20;;
42854;SDS011;29183;48.038;14.346;2022-07-09T08:30:21;2.35;;;1.95;;
42854;SDS011;29183;48.038;14.346;2022-07-09T08:32:50;5.85;;;2.58;;
42854;SDS011;29183;48.038;14.346;2022-07-09T08:35:18;5.90;;;2.45;;
42854;SDS011;29183;48.038;14.346;2022-07-09T08:37:46;4.38;;;1.65;;
42854;SDS011;29183;48.038;14.346;2022-07-09T08:40:14;2.05;;;1.63;;
42854;SDS011;29183;48.038;14.346;2022-07-09T08:42:43;2.35;;;1.58;;
42854;SDS011;29183;48.038;14.346;2022-07-09T08:45:11;3.40;;;1.90;;
42854;SDS011;29183;48.038;14.346;2022-07-09T08:47:43;1.58;;;1.45;;
42854;SDS011;29183;48.038;14.346;2022-07-09T08:50:12;2.70;;;1.80;;
42854;SDS011;29183;48.038;14.346;2022-07-09T08:52:41;4.45;;;1.95;;
42854;SDS011;29183;48.038;14.346;2022-07-09T08:55:10;3.15;;;1.90;;
42854;SDS011;29183;48.038;14.346;2022-07-09T08:57:38;2.55;;;1.63;;
42854;SDS011;29183;48.038;14.346;2022-07-09T09:00:06;3.15;;;1.48;;
42854;SDS011;29183;48.038;14.346;2022-07-09T09:02:35;3.55;;;1.50;;
42854;SDS011;29183;48.038;14.346;2022-07-09T09:05:13;2.65;;;1.33;;
42854;SDS011;29183;48.038;14.346;2022-07-09T09:07:43;3.00;;;1.80;;
42854;SDS011;29183;48.038;14.346;2022-07-09T09:10:24;1.55;;;1.40;;
42854;SDS011;29183;48.038;14.346;2022-07-09T09:12:58;2.67;;;1.50;;
42854;SDS011;29183;48.038;14.346;2022-07-09T09:15:28;3.25;;;1.45;;
42854;SDS011;29183;48.038;14.346;2022-07-09T09:17:56;3.55;;;1.55;;
42854;SDS011;29183;48.038;14.346;2022-07-09T09:20:25;6.30;;;2.00;;
42854;SDS011;29183;48.038;14.346;2022-07-09T09:22:54;3.13;;;1.58;;
42854;SDS011;29183;48.038;14.346;2022-07-09T09:25:28;2.65;;;1.50;;
42854;SDS011;29183;48.038;14.346;2022-07-09T09:27:57;2.67;;;1.30;;
42854;SDS011;29183;48.038;14.346;2022-07-09T09:30:27;2.17;;;1.42;;
42854;SDS011;29183;48.038;14.346;2022-07-09T09:32:58;2.92;;;1.58;;
42854;SDS011;29183;48.038;14.346;2022-07-09T09:35:28;2.47;;;1.42;;
42854;SDS011;29183;48.038;14.346;2022-07-09T09:38:03;2.80;;;1.90;;
42854;SDS011;29183;48.038;14.346;2022-07-09T09:40:31;2.08;;;1.40;;
42854;SDS011;29183;48.038;14.346;2022-07-09T09:43:00;2.67;;;1.30;;
42854;SDS011;29183;48.038;14.346;2022-07-09T09:45:31;2.90;;;1.52;;
42854;SDS011;29183;48.038;14.346;2022-07-09T09:48:01;1.38;;;1.20;;
42854;SDS011;29183;48.038;14.346;2022-07-09T09:50:33;2.05;;;1.50;;
42854;SDS011;29183;48.038;14.346;2022-07-09T09:53:06;6.55;;;1.73;;
42854;SDS011;29183;48.038;14.346;2022-07-09T09:55:35;2.33;;;1.58;;
42854;SDS011;29183;48.038;14.346;2022-07-09T09:58:05;1.85;;;1.40;;
42854;SDS011;29183;48.038;14.346;2022-07-09T10:00:34;4.30;;;1.83;;
42854;SDS011;29183;48.038;14.346;2022-07-09T10:03:03;3.13;;;1.50;;
42854;SDS011;29183;48.038;14.346;2022-07-09T10:05:32;2.85;;;1.35;;
42854;SDS011;29183;48.038;14.346;2022-07-09T10:08:01;4.68;;;1.95;;
42854;SDS011;29183;48.038;14.346;2022-07-09T10:10:29;3.03;;;1.30;;
42854;SDS011;29183;48.038;14.346;2022-07-09T10:12:57;4.18;;;2.05;;
42854;SDS011;29183;48.038;14.346;2022-07-09T10:15:26;1.60;;;1.20;;
42854;SDS011;29183;48.038;14.346;2022-07-09T10:17:54;4.10;;;1.40;;
42854;SDS011;29183;48.038;14.346;2022-07-09T10:20:32;3.38;;;1.38;;
42854;SDS011;29183;48.038;14.346;2022-07-09T10:23:02;3.25;;;1.30;;
42854;SDS011;29183;48.038;14.346;2022-07-09T10:25:41;2.28;;;1.20;;
42854;SDS011;29183;48.038;14.346;2022-07-09T10:28:17;2.72;;;1.20;;
42854;SDS011;29183;48.038;14.346;2022-07-09T10:30:46;3.38;;;1.73;;
42854;SDS011;29183;48.038;14.346;2022-07-09T10:36:10;2.20;;;1.40;;
42854;SDS011;29183;48.038;14.346;2022-07-09T10:38:51;2.50;;;1.35;;
42854;SDS011;29183;48.038;14.346;2022-07-09T10:41:22;2.50;;;1.25;;
42854;SDS011;29183;48.038;14.346;2022-07-09T10:43:52;4.55;;;1.65;;
42854;SDS011;29183;48.038;14.346;2022-07-09T10:46:20;1.40;;;1.17;;
42854;SDS011;29183;48.038;14.346;2022-07-09T10:48:48;2.00;;;1.20;;
42854;SDS011;29183;48.038;14.346;2022-07-09T10:51:20;3.13;;;1.50;;
42854;SDS011;29183;48.038;14.346;2022-07-09T10:53:50;2.97;;;1.20;;
42854;SDS011;29183;48.038;14.346;2022-07-09T10:56:18;3.05;;;1.10;;
42854;SDS011;29183;48.038;14.346;2022-07-09T10:58:47;4.22;;;1.33;;
42854;SDS011;29183;48.038;14.346;2022-07-09T11:01:20;1.58;;;1.23;;
42854;SDS011;29183;48.038;14.346;2022-07-09T11:03:51;3.20;;;1.20;;
42854;SDS011;29183;48.038;14.346;2022-07-09T11:06:19;1.58;;;1.05;;
42854;SDS011;29183;48.038;14.346;2022-07-09T11:08:48;1.50;;;1.30;;
42854;SDS011;29183;48.038;14.346;2022-07-09T11:11:22;2.75;;;1.60;;
42854;SDS011;29183;48.038;14.346;2022-07-09T11:13:51;2.65;;;1.20;;
42854;SDS011;29183;48.038;14.346;2022-07-09T11:16:22;1.95;;;1.35;;
42854;SDS011;29183;48.038;14.346;2022-07-09T11:18:51;1.15;;;1.08;;
42854;SDS011;29183;48.038;14.346;2022-07-09T11:21:22;3.53;;;1.40;;
42854;SDS011;29183;48.038;14.346;2022-07-09T11:23:51;2.95;;;1.63;;
42854;SDS011;29183;48.038;14.346;2022-07-09T11:26:19;2.60;;;1.85;;
42854;SDS011;29183;48.038;14.346;2022-07-09T11:28:48;1.80;;;1.13;;
42854;SDS011;29183;48.038;14.346;2022-07-09T11:31:18;1.87;;;1.60;;
42854;SDS011;29183;48.038;14.346;2022-07-09T11:33:47;3.67;;;1.38;;
42854;SDS011;29183;48.038;14.346;2022-07-09T11:36:44;3.25;;;1.50;;
42854;SDS011;29183;48.038;14.346;2022-07-09T11:39:23;4.22;;;1.67;;
42854;SDS011;29183;48.038;14.346;2022-07-09T11:41:57;1.45;;;1.10;;
42854;SDS011;29183;48.038;14.346;2022-07-09T11:44:30;1.30;;;1.15;;
42854;SDS011;29183;48.038;14.346;2022-07-09T11:47:06;2.78;;;1.40;;
42854;SDS011;29183;48.038;14.346;2022-07-09T11:49:37;3.58;;;1.30;;
42854;SDS011;29183;48.038;14.346;2022-07-09T11:52:20;2.63;;;1.65;;
42854;SDS011;29183;48.038;14.346;2022-07-09T11:57:34;1.77;;;1.20;;
42854;SDS011;29183;48.038;14.346;2022-07-09T12:00:04;2.55;;;1.15;;
42854;SDS011;29183;48.038;14.346;2022-07-09T12:02:35;2.20;;;1.23;;
42854;SDS011;29183;48.038;14.346;2022-07-09T12:05:07;2.67;;;0.90;;
42854;SDS011;29183;48.038;14.346;2022-07-09T12:07:39;3.13;;;1.10;;
42854;SDS011;29183;48.038;14.346;2022-07-09T12:10:10;2.60;;;1.17;;
42854;SDS011;29183;48.038;14.346;2022-07-09T12:12:39;1.70;;;1.40;;
42854;SDS011;29183;48.038;14.346;2022-07-09T12:15:07;2.00;;;1.10;;
42854;SDS011;29183;48.038;14.346;2022-07-09T12:17:36;1.58;;;1.20;;
42854;SDS011;29183;48.038;14.346;2022-07-09T12:20:06;2.20;;;1.58;;
42854;SDS011;29183;48.038;14.346;2022-07-09T12:22:36;1.00;;;0.90;;
42854;SDS011;29183;48.038;14.346;2022-07-09T12:25:04;1.92;;;1.05;;
42854;SDS011;29183;48.038;14.346;2022-07-09T12:27:33;4.28;;;1.23;;
42854;SDS011;29183;48.038;14.346;2022-07-09T12:30:02;1.48;;;0.90;;
42854;SDS011;29183;48.038;14.346;2022-07-09T12:32:30;1.23;;;1.10;;
42854;SDS011;29183;48.038;14.346;2022-07-09T12:34:58;0.85;;;0.82;;
42854;SDS011;29183;48.038;14.346;2022-07-09T12:37:26;2.10;;;1.00;;
42854;SDS011;29183;48.038;14.346;2022-07-09T12:39:55;2.13;;;1.33;;
42854;SDS011;29183;48.038;14.346;2022-07-09T12:42:23;0.73;;;0.50;;
42854;SDS011;29183;48.038;14.346;2022-07-09T12:44:51;2.42;;;1.08;;
42854;SDS011;29183;48.038;14.346;2022-07-09T12:47:20;2.75;;;1.00;;
42854;SDS011;29183;48.038;14.346;2022-07-09T12:49:48;2.25;;;0.90;;
42854;SDS011;29183;48.038;14.346;2022-07-09T12:52:17;1.10;;;1.00;;
42854;SDS011;29183;48.038;14.346;2022-07-09T12:54:45;1.05;;;0.90;;
42854;SDS011;29183;48.038;14.346;2022-07-09T12:57:13;1.17;;;1.08;;
42854;SDS011;29183;48.038;14.346;2022-07-09T12:59:41;2.40;;;0.90;;
42854;SDS011;29183;48.038;14.346;2022-07-09T13:02:09;1.10;;;0.75;;
42854;SDS011;29183;48.038;14.346;2022-07-09T13:04:38;1.23;;;0.85;;
42854;SDS011;29183;48.038;14.346;2022-07-09T13:07:06;2.25;;;0.80;;
42854;SDS011;29183;48.038;14.346;2022-07-09T13:09:34;0.95;;;0.88;;
42854;SDS011;29183;48.038;14.346;2022-07-09T13:12:03;1.02;;;0.70;;
42854;SDS011;29183;48.038;14.346;2022-07-09T13:14:32;0.63;;;0.60;;
42854;SDS011;29183;48.038;14.346;2022-07-09T13:17:00;1.52;;;0.68;;
42854;SDS011;29183;48.038;14.346;2022-07-09T13:19:49;0.90;;;0.82;;
42854;SDS011;29183;48.038;14.346;2022-07-09T13:22:17;3.63;;;1.00;;
42854;SDS011;29183;48.038;14.346;2022-07-09T13:24:45;1.40;;;1.00;;
42854;SDS011;29183;48.038;14.346;2022-07-09T13:27:13;1.02;;;0.90;;
42854;SDS011;29183;48.038;14.346;2022-07-09T13:29:41;1.08;;;0.95;;
42854;SDS011;29183;48.038;14.346;2022-07-09T13:32:10;1.70;;;1.13;;
42854;SDS011;29183;48.038;14.346;2022-07-09T13:34:46;1.05;;;0.80;;
42854;SDS011;29183;48.038;14.346;2022-07-09T13:37:15;3.78;;;1.10;;
42854;SDS011;29183;48.038;14.346;2022-07-09T13:39:43;1.42;;;1.00;;
42854;SDS011;29183;48.038;14.346;2022-07-09T13:42:11;2.05;;;1.15;;
42854;SDS011;29183;48.038;14.346;2022-07-09T13:44:39;1.48;;;0.90;;
42854;SDS011;29183;48.038;14.346;2022-07-09T13:47:08;1.63;;;0.80;;
42854;SDS011;29183;48.038;14.346;2022-07-09T13:49:36;2.20;;;0.65;;
42854;SDS011;29183;48.038;14.346;2022-07-09T13:52:05;3.72;;;1.02;;
42854;SDS011;29183;48.038;14.346;2022-07-09T13:54:33;0.98;;;0.75;;
42854;SDS011;29183;48.038;14.346;2022-07-09T13:57:01;1.85;;;0.75;;
42854;SDS011;29183;48.038;14.346;2022-07-09T13:59:31;2.13;;;0.80;;
42854;SDS011;29183;48.038;14.346;2022-07-09T14:01:59;0.75;;;0.70;;
42854;SDS011;29183;48.038;14.346;2022-07-09T14:04:28;1.75;;;0.65;;
42854;SDS011;29183;48.038;14.346;2022-07-09T14:06:57;3.10;;;1.00;;
42854;SDS011;29183;48.038;14.346;2022-07-09T14:09:25;1.17;;;1.08;;
42854;SDS011;29183;48.038;14.346;2022-07-09T14:11:53;1.40;;;0.98;;
42854;SDS011;29183;48.038;14.346;2022-07-09T14:14:22;1.58;;;1.20;;
42854;SDS011;29183;48.038;14.346;2022-07-09T14:16:50;2.40;;;1.20;;
42854;SDS011;29183;48.038;14.346;2022-07-09T14:19:18;1.52;;;1.13;;
42854;SDS011;29183;48.038;14.346;2022-07-09T14:21:46;1.55;;;0.80;;
42854;SDS011;29183;48.038;14.346;2022-07-09T14:24:14;2.17;;;0.90;;
42854;SDS011;29183;48.038;14.346;2022-07-09T14:26:43;1.27;;;0.80;;
42854;SDS011;29183;48.038;14.346;2022-07-09T14:29:12;1.35;;;0.80;;
42854;SDS011;29183;48.038;14.346;2022-07-09T14:31:48;1.48;;;1.10;;
42854;SDS011;29183;48.038;14.346;2022-07-09T14:34:16;4.75;;;1.20;;
42854;SDS011;29183;48.038;14.346;2022-07-09T14:36:45;3.03;;;0.90;;
42854;SDS011;29183;48.038;14.346;2022-07-09T14:39:14;3.08;;;0.82;;
42854;SDS011;29183;48.038;14.346;2022-07-09T14:41:42;7.05;;;1.15;;
42854;SDS011;29183;48.038;14.346;2022-07-09T14:44:11;1.52;;;0.88;;
42854;SDS011;29183;48.038;14.346;2022-07-09T14:46:40;3.30;;;0.68;;
42854;SDS011;29183;48.038;14.346;2022-07-09T14:49:09;1.77;;;1.05;;